Gold Coast Airport
YBCG : now visible

Airfield :











YOU CAN JOIN US ON...

 
LOGIN :

Register | Disclaimer

   EN    FR    IT 

 









Legend :    VFR   Marginal VFR   IFR   Intensive IFR   Very Intensive IFR
Visi :
Ceiling :
>= 8 km
>= 3000ft
5 to 8 km
1000 to 3000 ft
1500m to 5 km
500 to 1000 ft
800 to 1500m
200 to 500 ft
< 800m
< 200 ft
Symbols :   Thunderstorms  Fog  Heavy snow  Heavy precipitations  Wind > 20 kt






- Airport Elevation : 21 ft
- IATA code : OOL


YBCG - Gold Coast

CURRENT METAR :
  • 280030Z AUTO 06007KT 9999 // SCT020 SCT043 BKN050 28/22 Q1015

EXPIRED METARs :
  • 280000Z AUTO 11003KT 9999 // SCT020 SCT024 BKN033 27/21 Q1015
  • 272330Z AUTO 14005KT 110V180 9999 // SCT019 SCT058 SCT066 27/23 Q1015
  • 272300Z AUTO 21005KT 9999 -SHRA SCT009 BKN023 BKN034 25/22 Q1015
  • 272230Z AUTO 24005KT 9999 -SHRA SCT023 BKN029 BKN038 25/22 Q1015
  • 272200Z AUTO 23005KT 9999 -SHRA BKN026 OVC032 24/22 Q1014

TAF TAF YBCG
Valid from the 28 at 00:00 until the 29 at 00:00 UTC


272305Z 2800/2900 04008KT 9999 -SHRA SCT025
FM280200 03012KT 9999 NSW FEW025
FM280800 01008KT 9999 SCT025
FM281300 33005KT 9999 SCT020
FM282200 04010KT 9999 SCT030 INTER 2800/2803 2000 SHRA BKN010



MET'MAP, your aeronautical weather chart ! - Copyright ORBIFLY December 2007 - Disclaimer

ORBIFLY MET'MAP TEAM :

Programming & Development : Alexandra Zaïnal
Concept & original design : Baudouin d'Aumeries
Assistance for programming : Marc-Olivier Méhu
Technical & hardware support : Manuel Goepfert

Contact : metmap@orbifly.com




SOURCES & CREDITS :

   NOAA       Earth
Advisory